Bda Buenos Aires, Puerto Rico
Current Conditions -  °F | °C
As of 8:53 AM on Sunday 21 Dec 2014 (Local Time) from TJNR Reporting Station
Few Clouds Few Clouds  
Wind Chill: 80°   Ceiling: Unl
Heat Index: 83°   Visibility: 10mi
Dew Point: 68°   Wind: 10mph
Humidity: 67%   Direction: 80°E
Pressure: 30.11"   Gusts: NA
Location:  18.2147°N, 65.7358°W
Report Text: TJNR 211253Z AUTO 08009KT 10SM FEW030 27/20 A3011 RMK AO2 SLP197 T02670200 $
Loading
Personal Weather Stations






























Interactive Weather Map New forecast layout! Learn more

10-Day Weather Forecast

Advertisements
Track Severe Weather on mobile